Terminal Aerodrome Forecast
Issued by NWS Bismarck, ND

Home | Current Version | Previous Version | Graphics & Text | Print | Product List | Glossary On
Versions: 1 2 3 4 5 6 7 8 9 10 11 12 13 14 15 16
000
FTUS43 KBIS 212346
TAFISN
TAF
KISN 212346Z 2200/2224 28020G30KT P6SM BKN045 WS020/29030KT
     FM220300 20010KT P6SM FEW090
     FM221600 23015G24KT P6SM BKN060 WS010/25020KT=

USA.gov is the U.S. government's official web portal to all federal, state and local government web resources and services.